IHC weather

Inhaca Airport
Inhaca, Maputo Province, Mozambique

Public forecast

Using degrees Celsius for public forecast. Weather courtesy of forecast.io.

METAR (pilot weather report)

Closest report is Maputo Airport, 19.8 nm (36.7 km) WNW. Retrieved 2019/09/22 08:00 UTC (53 minutes ago):

FQMA 220800Z 33011KT CAVOK 29/16 Q1013 NOSIG

TAF (pilot weather forecast)

Closest forecast is Maputo Airport, 19.8 nm (36.7 km) WNW. Retrieved 2019/09/22 06:00 UTC (3 hours ago):

TAF FQMA 220400Z 2206/2312 35008KT CAVOK TX36/2213Z TN19/2303Z BECMG 2212/2214 05012KT BECMG 2218/2220 10008KT BECMG 2300/2302 21010G20KT